Main page
METAR-TAF:

METAR-TAF

Airports :

Southampton Airport

Southampton, England

latitude: 50-54N, longitude: 001-24W, elevation: 9 m

Current weather observation

The report was made 17 minutes ago, at 06:50 UTC
Calm wind
Temperature 14°C
Humidity 94%
Pressure 1011 hPa
Visibility: 4500 m
Broken clouds at a height of 800 ft
mist

METAR: EGHI 260650Z 00000KT 4500 BR BKN008 14/13 Q1011

Time: 08:07 (07:07 UTC)

Forecast

The report was made 45 minutes ago, at 06:22 UTC
Forecast valid from 26 at 06 UTC to 26 at 15 UTC
Wind 2 kt from variable directions
Visibility: 2000 m
Broken clouds at a height of 800 ft
mist, Shallow fog
Becoming
from 26 at 06 UTC to 26 at 09 UTC
Visibility 10 km or more
Scattered clouds at a height of 2000 ft
Becoming
from 26 at 09 UTC to 26 at 12 UTC
Wind 10 kt from the South

TAF: EGHI 260622Z 2606/2615 VRB02KT 2000 BR MIFG BKN008 BECMG 2606/2609 9999 NSW SCT020 BECMG 2609/2612 19010KT

Weather observations and forecasts of more than 4000 airports (METAR and TAF reports).

The available stations are represented by yellow and red dots on the map.

Hover mouse over dot to see the name of the station.

Then click to see weather observations and forecasts.

To change the map : click on the green buttons with a black cross to zoom in, on the green button with a dash to zoom out, or on the green arrows for adjacent maps.


METAR-TAF: